This is the latest recevied weather packets stored in our database for station/object KX4O-13. If no packets are shown the sender has not sent any weather packets the latest 10 day(s).
| Time | Temp. | Humidity | Pressure | Rain* | Wind** | Luminosity | Snow |
|---|---|---|---|---|---|---|---|
| 1778022654 | 25° C | 31% | 1009.1 hPa | 0 mm | - | 23 W/m² | - |
| 1778022352 | 25.56° C | 31% | 1009.1 hPa | 0 mm | - | 37 W/m² | - |
| 1778022052 | 25.56° C | 30% | 1009.2 hPa | 0 mm | - | 44 W/m² | - |
| 1778021752 | 25.56° C | 29% | 1009.2 hPa | 0 mm | - | 79 W/m² | - |
| 1778021452 | 26.11° C | 29% | 1009.2 hPa | 0 mm | - | 74 W/m² | - |
| 1778021153 | 26.11° C | 28% | 1009.2 hPa | 0 mm | - | 111 W/m² | - |
| 1778020852 | 26.11° C | 27% | 1009.2 hPa | 0 mm | - | 167 W/m² | - |
| 1778020552 | 26.11° C | 26% | 1009.3 hPa | 0 mm | - | 285 W/m² | - |
| 1778020254 | 26.11° C | 25% | 1009.3 hPa | 0 mm | - | 192 W/m² | - |
| 1778019952 | 26.11° C | 25% | 1009.4 hPa | 0 mm | - | 225 W/m² | - |
| 1778019653 | 26.67° C | 26% | 1009.1 hPa | 0 mm | - | 100 W/m² | - |
| 1778019352 | 26.67° C | 26% | 1009.2 hPa | 0 mm | - | 373 W/m² | - |
| 1778019054 | 26.67° C | 27% | 1009 hPa | 0 mm | - | 399 W/m² | - |
| 1778018752 | 26.11° C | 31% | 1008.9 hPa | 0 mm | - | 171 W/m² | - |
| 1778018452 | 26.11° C | 29% | 1009.1 hPa | 0 mm | - | 211 W/m² | - |
| 1778018152 | 26.11° C | 29% | 1009.2 hPa | 0 mm | - | 487 W/m² | - |
| 1778017853 | 26.67° C | 29% | 1009 hPa | 0 mm | - | 229 W/m² | - |
| 1778017552 | 26.11° C | 29% | 1009.1 hPa | 0 mm | - | 237 W/m² | - |
| 1778017253 | 26.11° C | 29% | 1009.1 hPa | 0 mm | - | 320 W/m² | - |
| 1778016953 | 26.11° C | 29% | 1009 hPa | 0 mm | - | 199 W/m² | - |
| 1778016654 | 26.11° C | 30% | 1009 hPa | 0 mm | - | 223 W/m² | - |
| 1778016353 | 26.11° C | 30% | 1008.9 hPa | 0 mm | - | 172 W/m² | - |
| 1778016052 | 26.67° C | 29% | 1009 hPa | 0 mm | - | 167 W/m² | - |
| 1778015752 | 27.22° C | 30% | 1008.9 hPa | 0 mm | - | 188 W/m² | - |
| 1778015452 | 26.67° C | 29% | 1008.9 hPa | 0 mm | - | 316 W/m² | - |
* Rain latest hour (hover to see other rain measurements)
** Current wind speed in m/s (hover to see current wind gust speed)